createdAt,value
2023-05-21T13:41:04.908Z,42.13
2023-05-21T13:45:45.623Z,47.40
2023-05-21T13:46:46.561Z,47.71
2023-05-21T13:50:46.382Z,48.43
2023-05-21T13:51:47.409Z,48.32
2023-05-21T13:56:13.553Z,48.60
2023-05-21T13:57:14.442Z,47.90
2023-05-21T13:59:21.966Z,50.55
2023-05-21T14:00:22.995Z,48.56
2023-05-21T14:01:23.176Z,47.32
2023-05-21T14:02:23.252Z,41.26
2023-05-21T14:03:24.094Z,36.09
2023-05-21T14:04:23.233Z,30.27
2023-05-21T14:05:23.307Z,28.36
2023-05-21T14:06:23.230Z,27.31
2023-05-21T14:07:23.294Z,25.80
2023-05-21T14:08:23.271Z,24.90
2023-05-21T14:09:23.408Z,24.08
2023-05-21T14:10:23.380Z,23.88
2023-05-21T14:11:23.510Z,23.59
2023-05-21T14:12:23.535Z,23.19
2023-05-21T14:13:23.493Z,23.19
2023-05-21T14:14:23.600Z,23.93
2023-05-21T14:15:23.596Z,26.25
2023-05-21T14:16:23.669Z,25.82
2023-05-21T14:17:23.783Z,24.80
2023-05-21T14:18:23.712Z,23.89
2023-05-21T14:19:23.879Z,23.89
2023-05-21T14:20:23.811Z,24.21
2023-05-21T14:21:23.818Z,25.02
2023-05-21T14:22:23.828Z,25.82
2023-05-21T14:23:23.838Z,26.74
2023-05-21T14:24:23.857Z,27.98
2023-05-21T14:25:23.861Z,28.99
2023-05-21T14:26:23.858Z,29.08
2023-05-21T14:27:23.958Z,28.88
2023-05-21T14:28:23.915Z,28.68
2023-05-21T14:29:24.079Z,29.30
2023-05-21T14:30:24.032Z,30.82
2023-05-21T14:31:24.034Z,31.33
2023-05-21T14:32:24.332Z,31.23
2023-05-21T14:33:24.030Z,32.17
2023-05-21T14:34:24.036Z,32.89
2023-05-21T14:35:24.046Z,33.91
2023-05-21T14:36:24.054Z,34.49
2023-05-21T14:37:24.083Z,34.91
2023-05-21T14:38:24.066Z,33.23
2023-05-21T14:39:24.157Z,31.19
2023-05-21T14:40:24.148Z,29.46
2023-05-21T14:41:24.256Z,28.55
2023-05-21T14:42:24.261Z,27.94
2023-05-21T14:43:24.263Z,27.84
2023-05-21T14:44:24.244Z,27.84
2023-05-21T14:45:24.320Z,27.45
2023-05-21T14:46:24.398Z,27.54
2023-05-21T14:47:24.447Z,27.33
2023-05-21T14:48:24.417Z,27.13
2023-05-21T14:49:24.400Z,26.93
2023-05-21T14:50:25.384Z,27.34
2023-05-21T14:51:24.668Z,27.55
2023-05-21T14:52:24.553Z,27.86
2023-05-21T14:53:24.559Z,28.26
2023-05-21T14:54:24.582Z,28.26
2023-05-21T14:55:24.581Z,28.67
2023-05-21T14:56:24.581Z,28.67
2023-05-21T14:57:24.658Z,28.38
2023-05-21T14:58:24.740Z,28.45
2023-05-21T14:59:24.659Z,27.95
2023-05-21T15:00:24.674Z,27.95
2023-05-21T15:01:24.757Z,27.95
2023-05-21T15:02:24.762Z,27.76
2023-05-21T15:03:24.743Z,28.06
2023-05-21T15:04:24.767Z,28.16
2023-05-21T15:05:24.782Z,28.26
2023-05-21T15:06:24.837Z,28.45
2023-05-21T15:07:24.850Z,28.57
2023-05-21T15:08:24.843Z,28.78
2023-05-21T15:09:24.934Z,29.38
2023-05-21T15:10:24.943Z,30.00
2023-05-21T15:11:24.914Z,30.50
2023-05-21T15:12:25.006Z,30.62
2023-05-21T15:13:24.978Z,30.93
2023-05-21T15:14:25.047Z,31.01
2023-05-21T15:15:25.150Z,30.62
2023-05-21T15:16:25.197Z,30.40
2023-05-21T15:17:25.350Z,30.00
2023-05-21T15:18:25.263Z,29.79
2023-05-21T15:19:25.350Z,28.97
2023-05-21T15:20:35.063Z,28.88
2023-05-21T15:21:27.831Z,28.99
2023-05-21T15:22:25.371Z,29.91
2023-05-21T15:23:25.359Z,31.25
2023-05-21T15:24:25.344Z,32.48
2023-05-21T15:25:25.407Z,33.49
2023-05-21T15:26:25.468Z,34.31
2023-05-21T15:27:25.529Z,34.71
2023-05-21T15:28:25.497Z,33.89
2023-05-21T15:29:25.613Z,33.28
2023-05-21T15:30:25.560Z,33.28
2023-05-21T15:31:25.625Z,33.39
2023-05-21T15:32:25.633Z,33.79
2023-05-21T15:33:25.644Z,33.89
2023-05-21T15:34:25.655Z,33.98
2023-05-21T15:35:25.794Z,34.20
2023-05-21T15:36:25.656Z,33.98
2023-05-21T15:37:25.645Z,33.59
2023-05-21T15:38:25.715Z,33.69
2023-05-21T15:39:25.628Z,33.59
2023-05-21T15:40:27.142Z,33.91
2023-05-21T15:41:25.781Z,34.00
2023-05-21T15:42:25.758Z,34.00
2023-05-21T15:43:25.863Z,34.00
2023-05-21T15:44:25.887Z,34.51
2023-05-21T15:45:25.941Z,34.92
2023-05-21T15:46:26.183Z,35.14
2023-05-21T15:47:25.954Z,35.64
2023-05-21T15:48:25.861Z,35.86
2023-05-21T15:49:25.954Z,36.16
2023-05-21T15:50:25.964Z,36.16
2023-05-21T15:51:25.972Z,35.86
2023-05-21T15:52:25.974Z,35.14
2023-05-21T15:53:26.100Z,34.41
2023-05-21T15:54:26.119Z,33.70
2023-05-21T15:55:26.182Z,33.61
2023-05-21T15:56:26.139Z,33.91
2023-05-21T15:57:26.200Z,34.22
2023-05-21T15:58:26.205Z,34.63
2023-05-21T15:59:26.269Z,35.43
2023-05-21T16:00:26.251Z,35.64
2023-05-21T16:01:26.329Z,36.16
2023-05-21T16:02:26.304Z,36.57
2023-05-21T16:03:26.380Z,36.67
2023-05-21T16:04:26.293Z,36.77
2023-05-21T16:05:26.380Z,36.57
2023-05-21T16:06:26.436Z,36.16
2023-05-21T16:07:26.433Z,35.63
2023-05-21T16:08:26.477Z,35.12
2023-05-21T16:09:26.485Z,34.51
2023-05-21T16:10:26.475Z,33.89
2023-05-21T16:11:26.566Z,33.80
2023-05-21T16:12:26.554Z,34.61
2023-05-21T16:13:26.638Z,35.14
2023-05-21T16:14:26.617Z,35.55
2023-05-21T16:15:26.684Z,35.85
2023-05-21T16:16:26.766Z,36.06
2023-05-21T16:17:26.781Z,36.36
2023-05-21T16:18:26.813Z,36.57
2023-05-21T16:19:26.952Z,36.67
2023-05-21T16:20:26.919Z,36.88
2023-05-21T16:21:26.901Z,36.98
2023-05-21T16:22:26.900Z,37.18
2023-05-21T16:23:27.001Z,37.40
2023-05-21T16:24:26.963Z,37.62
2023-05-21T16:25:27.082Z,37.81
2023-05-21T16:26:27.072Z,37.91
2023-05-21T16:27:27.198Z,38.11
2023-05-21T16:28:27.445Z,38.21
2023-05-21T16:29:27.192Z,38.13
2023-05-21T16:30:27.189Z,38.32
2023-05-21T16:31:27.224Z,38.42
2023-05-21T16:32:27.498Z,38.53
2023-05-21T16:33:27.318Z,38.64
2023-05-21T16:34:27.315Z,38.74
2023-05-21T16:35:27.343Z,38.84
2023-05-21T16:36:27.341Z,38.84
2023-05-21T16:37:27.397Z,39.15
2023-05-21T16:38:27.482Z,39.06
2023-05-21T16:39:27.475Z,39.06
2023-05-21T16:40:27.475Z,39.25
2023-05-21T16:41:27.532Z,39.25
2023-05-21T16:42:27.556Z,39.45
2023-05-21T16:43:27.600Z,39.77
2023-05-21T16:44:27.621Z,39.77
2023-05-21T16:45:27.607Z,39.87
2023-05-21T16:46:27.668Z,39.97
2023-05-21T16:47:27.682Z,39.97
2023-05-21T16:48:27.668Z,40.09
2023-05-21T16:49:27.689Z,40.19
2023-05-21T16:50:27.669Z,40.09
2023-05-21T16:51:27.743Z,39.98
2023-05-21T16:52:27.743Z,39.98
2023-05-21T16:53:27.813Z,40.50
2023-05-21T16:54:27.786Z,40.30
2023-05-21T16:55:27.886Z,40.50
2023-05-21T16:56:27.864Z,40.72
2023-05-21T16:57:27.915Z,40.82
2023-05-21T16:58:28.036Z,40.82
2023-05-21T16:59:28.018Z,40.92
2023-05-21T17:00:28.016Z,41.12
2023-05-21T17:01:28.092Z,41.12
2023-05-21T17:02:28.237Z,41.34
2023-05-21T17:03:28.254Z,41.24
2023-05-21T17:04:28.224Z,41.34
2023-05-21T17:05:28.270Z,41.44
2023-05-21T17:06:28.353Z,41.44
2023-05-21T17:07:28.377Z,41.63
2023-05-21T17:08:28.403Z,41.53
2023-05-21T17:09:28.398Z,41.63
2023-05-21T17:10:28.420Z,41.74
2023-05-21T17:11:28.413Z,41.63
2023-05-21T17:12:28.496Z,41.66
2023-05-21T17:13:28.552Z,41.85
2023-05-21T17:14:34.323Z,41.66
2023-05-21T17:15:28.560Z,41.85
2023-05-21T17:16:28.671Z,41.85
2023-05-21T17:17:28.714Z,41.75
2023-05-21T17:18:28.707Z,41.75
2023-05-21T17:19:28.853Z,42.05
2023-05-21T17:20:28.792Z,41.95
2023-05-21T17:21:28.807Z,41.85
2023-05-21T17:22:28.797Z,42.07
2023-05-21T17:23:28.853Z,42.07
2023-05-21T17:24:28.836Z,42.17
2023-05-21T17:25:28.911Z,42.37
2023-05-21T17:26:28.937Z,42.47
2023-05-21T17:27:28.939Z,42.47
2023-05-21T17:28:29.001Z,42.57
2023-05-21T17:29:28.994Z,42.89
2023-05-21T17:30:28.965Z,42.89
2023-05-21T17:31:29.084Z,42.99
2023-05-21T17:32:29.090Z,43.08
2023-05-21T17:33:29.086Z,42.99
2023-05-21T17:34:29.098Z,43.08
2023-05-21T17:35:29.087Z,43.19
2023-05-21T17:36:29.084Z,43.29
2023-05-21T17:37:29.165Z,43.29
2023-05-21T17:38:29.160Z,43.29
2023-05-21T17:39:29.140Z,43.41
2023-05-21T17:40:29.184Z,43.51
2023-05-21T17:41:29.226Z,43.41
2023-05-21T17:42:29.278Z,43.60
2023-05-21T17:43:29.366Z,43.80
2023-05-21T17:44:29.356Z,43.71
2023-05-21T17:45:29.352Z,43.60
2023-05-21T17:46:29.372Z,43.71
2023-05-21T17:47:29.468Z,43.71
2023-05-21T17:48:29.494Z,43.80
2023-05-21T17:49:29.555Z,43.71
2023-05-21T17:50:29.518Z,43.71
2023-05-21T17:51:29.616Z,43.80
2023-05-21T17:52:29.603Z,43.82
2023-05-21T17:53:29.700Z,44.02
2023-05-21T17:54:29.648Z,43.82
2023-05-21T17:55:29.686Z,43.93
2023-05-21T17:56:29.648Z,43.93
2023-05-21T17:57:29.712Z,44.23
2023-05-21T17:58:29.718Z,44.02
2023-05-21T17:59:29.728Z,44.23
2023-05-21T18:00:29.739Z,44.32
2023-05-21T18:01:29.898Z,44.12
2023-05-21T18:02:29.898Z,44.32
2023-05-21T18:03:29.905Z,44.32
2023-05-21T18:04:29.985Z,44.24
2023-05-21T18:05:29.951Z,44.24
2023-05-21T18:06:29.910Z,44.54
2023-05-21T18:07:29.963Z,44.45
2023-05-21T18:08:30.041Z,44.45
2023-05-21T18:09:30.038Z,44.45
2023-05-21T18:10:30.053Z,44.65
2023-05-21T18:11:30.094Z,44.54
2023-05-21T18:12:30.159Z,44.54
2023-05-21T18:13:30.260Z,44.74
2023-05-21T18:14:30.271Z,44.76
2023-05-21T18:15:30.345Z,44.87
2023-05-21T18:16:30.387Z,44.96
2023-05-21T18:17:30.377Z,44.87
2023-05-21T18:18:30.399Z,45.06
2023-05-21T18:19:30.661Z,45.06
2023-05-21T18:20:30.396Z,44.96
2023-05-21T18:21:30.390Z,45.17
2023-05-21T18:22:30.450Z,45.06
2023-05-21T18:23:30.502Z,45.17
2023-05-21T18:24:30.491Z,45.06
2023-05-21T18:25:30.470Z,45.06
2023-05-21T18:26:30.536Z,45.26
2023-05-21T18:27:30.601Z,45.47
2023-05-21T18:28:30.677Z,45.17
2023-05-21T18:29:30.695Z,45.18
2023-05-21T18:30:30.689Z,45.39
2023-05-21T18:31:30.838Z,45.29
2023-05-21T18:32:30.809Z,45.39
2023-05-21T18:33:30.813Z,45.18
2023-05-21T18:34:30.788Z,45.48
2023-05-21T18:35:30.845Z,45.48
2023-05-21T18:36:30.921Z,45.48
2023-05-21T18:37:30.910Z,45.39
2023-05-21T18:38:30.996Z,45.68
2023-05-21T18:39:30.980Z,45.48
2023-05-21T18:40:30.980Z,45.48
2023-05-21T18:41:31.019Z,45.48
2023-05-21T18:42:31.005Z,45.48
2023-05-21T18:43:31.144Z,45.59
2023-05-21T18:44:31.114Z,45.59
2023-05-21T18:45:31.201Z,45.78
2023-05-21T18:46:31.236Z,45.71
2023-05-21T18:47:31.243Z,45.81
2023-05-21T18:48:31.221Z,45.71
2023-05-21T18:49:31.317Z,45.90
2023-05-21T18:50:31.288Z,45.90
2023-05-21T18:51:31.396Z,45.61
2023-05-21T18:52:31.378Z,45.71
2023-05-21T18:53:31.472Z,45.90
2023-05-21T18:54:31.499Z,45.90
2023-05-21T18:55:31.497Z,45.90
2023-05-21T18:56:31.469Z,45.90
2023-05-21T18:57:31.596Z,46.01
2023-05-21T18:58:31.598Z,46.01
2023-05-21T18:59:31.618Z,45.90
2023-05-21T19:00:31.605Z,46.01
2023-05-21T19:01:31.759Z,45.90
2023-05-21T19:02:31.790Z,46.01
2023-05-21T19:03:31.816Z,46.20
2023-05-21T19:04:31.753Z,46.13
2023-05-21T19:05:31.963Z,46.13
2023-05-21T19:06:31.888Z,46.23
2023-05-21T19:07:31.915Z,46.01
2023-05-21T19:08:31.893Z,46.03
2023-05-21T19:09:31.904Z,46.03
2023-05-21T19:10:31.919Z,46.13
2023-05-21T19:11:31.918Z,46.13
2023-05-21T19:12:31.956Z,46.13
2023-05-21T19:13:31.991Z,46.03
2023-05-21T19:14:31.992Z,46.13
2023-05-21T19:15:32.018Z,46.33
2023-05-21T19:16:32.007Z,46.03
2023-05-21T19:17:32.063Z,46.23
2023-05-21T19:18:32.046Z,46.53
2023-05-21T19:19:32.133Z,46.33
2023-05-21T19:20:32.092Z,46.33
2023-05-21T19:21:32.074Z,46.33
2023-05-21T19:22:32.125Z,46.13
2023-05-21T19:23:38.398Z,46.23
2023-05-21T19:24:32.221Z,46.33
2023-05-21T19:25:32.304Z,46.13
2023-05-21T19:26:32.276Z,46.43
2023-05-21T19:27:32.346Z,46.33
2023-05-21T19:28:32.429Z,46.33
2023-05-21T19:29:32.430Z,46.43
2023-05-21T19:30:32.519Z,46.43
2023-05-21T19:31:32.526Z,46.53
2023-05-21T19:32:32.504Z,46.33
2023-05-21T19:33:32.664Z,46.43
2023-05-21T19:34:32.686Z,46.43
2023-05-21T19:35:32.651Z,46.33
2023-05-21T19:36:40.796Z,46.33
2023-05-21T19:37:32.719Z,46.33
2023-05-21T19:38:32.724Z,46.43
2023-05-21T19:39:32.753Z,46.33
2023-05-21T19:40:32.741Z,46.45
2023-05-21T19:41:32.816Z,46.35
2023-05-21T19:42:32.794Z,46.45
2023-05-21T19:43:32.887Z,46.45
2023-05-21T19:44:32.863Z,46.35
2023-05-21T19:45:33.010Z,46.55
2023-05-21T19:46:32.916Z,46.35
2023-05-21T19:47:33.030Z,46.35
2023-05-21T19:48:33.101Z,46.35
2023-05-21T19:49:33.069Z,46.45
2023-05-21T19:50:33.130Z,46.35
2023-05-21T19:51:33.206Z,46.35
2023-05-21T19:52:33.209Z,46.35
2023-05-21T19:53:33.206Z,46.35
2023-05-21T19:54:33.194Z,46.45
2023-05-21T19:55:33.299Z,46.45
2023-05-21T19:56:33.257Z,46.45
2023-05-21T19:57:33.368Z,46.55
2023-05-21T19:58:33.386Z,46.45
2023-05-21T19:59:33.391Z,46.65
2023-05-21T20:00:33.371Z,46.75
2023-05-21T20:01:33.448Z,46.45
2023-05-21T20:02:33.496Z,46.25
2023-05-21T20:03:33.519Z,46.45
2023-05-21T20:04:33.479Z,46.45
2023-05-21T20:05:33.556Z,46.55
2023-05-21T20:06:33.610Z,46.45
2023-05-21T20:07:33.704Z,46.45
2023-05-21T20:08:33.682Z,46.45
2023-05-21T20:09:33.730Z,46.25
2023-05-21T20:10:33.828Z,46.45
2023-05-21T20:11:33.824Z,46.25
2023-05-21T20:12:33.823Z,46.45
2023-05-21T20:13:33.899Z,46.75
2023-05-21T20:14:33.899Z,46.55
2023-05-21T20:15:33.890Z,46.25
2023-05-21T20:16:33.923Z,46.25
2023-05-21T20:17:33.989Z,46.15
2023-05-21T20:18:33.983Z,45.95
2023-05-21T20:19:34.106Z,45.95
2023-05-21T20:20:33.990Z,45.75
2023-05-21T20:21:33.990Z,45.85
2023-05-21T20:22:34.043Z,45.95
2023-05-21T20:23:34.054Z,45.75
2023-05-21T20:24:34.070Z,46.05
2023-05-21T20:25:34.127Z,45.55
2023-05-21T20:26:34.107Z,45.55
2023-05-21T20:27:34.189Z,45.55
2023-05-21T20:28:34.297Z,45.55
2023-05-21T20:29:34.234Z,45.45
2023-05-21T20:30:34.284Z,45.45
2023-05-21T20:31:34.332Z,45.55
2023-05-21T20:32:34.385Z,45.45
2023-05-21T20:33:34.413Z,45.55
2023-05-21T20:34:34.395Z,45.45
2023-05-21T20:35:34.403Z,45.15
2023-05-21T20:36:34.383Z,44.85
2023-05-21T20:37:34.451Z,44.75
2023-05-21T20:38:34.482Z,44.85
2023-05-21T20:39:34.479Z,44.85
2023-05-21T20:40:34.492Z,45.05
2023-05-21T20:41:34.643Z,44.75
2023-05-21T20:42:35.017Z,44.65
2023-05-21T20:43:34.618Z,44.65
2023-05-21T20:44:34.591Z,44.75
2023-05-21T20:45:34.675Z,44.85
2023-05-21T20:46:34.725Z,44.85
2023-05-21T20:47:34.739Z,45.05
2023-05-21T20:48:34.769Z,45.07
2023-05-21T20:49:34.764Z,44.85
2023-05-21T20:50:34.865Z,44.65
2023-05-21T20:51:34.862Z,44.75
2023-05-21T20:52:34.842Z,44.65
2023-05-21T20:53:34.948Z,44.65
2023-05-21T20:54:34.934Z,44.75
2023-05-21T20:55:35.102Z,44.55
2023-05-21T20:56:42.042Z,44.75
2023-05-21T20:57:35.035Z,44.65
2023-05-21T20:58:35.027Z,44.25
2023-05-21T20:59:35.103Z,44.55
2023-05-21T21:00:35.077Z,44.55
2023-05-21T21:01:35.165Z,44.35
2023-05-21T21:02:35.225Z,44.55
2023-05-21T21:03:35.354Z,44.45
2023-05-21T21:04:35.260Z,44.55
2023-05-21T21:05:35.342Z,44.45
2023-05-21T21:06:35.319Z,44.65
2023-05-21T21:07:35.376Z,44.47
2023-05-21T21:08:35.499Z,44.57
2023-05-21T21:09:35.501Z,44.67
2023-05-21T21:10:38.392Z,44.57
2023-05-21T21:11:35.557Z,44.78
2023-05-21T21:12:35.684Z,44.67
2023-05-21T21:13:35.717Z,44.78
2023-05-21T21:14:35.708Z,44.67
2023-05-21T21:15:35.750Z,44.67
2023-05-21T21:16:35.991Z,44.78
2023-05-21T21:17:35.875Z,44.57
2023-05-21T21:18:35.869Z,44.47
2023-05-21T21:19:35.870Z,44.67
2023-05-21T21:20:35.960Z,44.47
2023-05-21T21:21:36.000Z,44.47
2023-05-21T21:22:36.037Z,44.37
2023-05-21T21:23:36.121Z,44.47
2023-05-21T21:24:36.143Z,44.57
2023-05-21T21:25:36.132Z,44.67
2023-05-21T21:26:36.208Z,44.37
2023-05-21T21:27:36.244Z,44.37
2023-05-21T21:28:36.356Z,44.37
2023-05-21T21:29:36.300Z,44.57
2023-05-21T21:30:36.451Z,44.57
2023-05-21T21:31:36.304Z,44.57
2023-05-21T21:32:36.293Z,44.67
2023-05-21T21:33:36.421Z,44.67
2023-05-21T21:34:36.461Z,44.67
2023-05-21T21:35:36.462Z,44.97
2023-05-21T21:36:36.435Z,44.78
2023-05-21T21:37:36.495Z,44.87
2023-05-21T21:38:36.551Z,44.67
2023-05-21T21:39:36.668Z,44.87
2023-05-21T21:40:36.922Z,44.78
2023-05-21T21:41:36.681Z,44.97
2023-05-21T21:42:36.657Z,45.27
2023-05-21T21:43:36.756Z,45.17
2023-05-21T21:44:36.792Z,45.07
2023-05-21T21:45:36.813Z,45.07
2023-05-21T21:46:36.835Z,45.17
2023-05-21T21:47:36.885Z,45.17
2023-05-21T21:48:36.885Z,45.17
2023-05-21T21:49:36.892Z,45.37
2023-05-21T21:50:36.963Z,45.37
2023-05-21T21:51:37.029Z,45.37
2023-05-21T21:52:36.900Z,45.47
2023-05-21T21:53:36.996Z,45.57
2023-05-21T21:54:37.033Z,45.47
2023-05-21T21:55:37.040Z,45.47
2023-05-21T21:56:37.138Z,45.67
2023-05-21T21:57:37.151Z,45.27
2023-05-21T21:58:37.156Z,45.87
2023-05-21T21:59:37.262Z,45.47
2023-05-21T22:00:37.529Z,47.87
2023-05-21T22:01:37.453Z,45.67
2023-05-21T22:02:37.389Z,45.97
2023-05-21T22:03:37.361Z,45.97
2023-05-21T22:04:37.466Z,45.75
2023-05-21T22:05:37.328Z,45.87
2023-05-21T22:06:37.310Z,45.87
2023-05-21T22:07:37.372Z,45.95
2023-05-21T22:08:37.422Z,45.85
2023-05-21T22:09:37.528Z,45.85
2023-05-21T22:10:37.764Z,45.95
2023-05-21T22:11:37.611Z,45.75
2023-05-21T22:12:37.679Z,45.95
2023-05-21T22:13:37.697Z,45.95
2023-05-21T22:14:37.692Z,46.05
2023-05-21T22:15:37.923Z,45.95
2023-05-21T22:16:37.706Z,45.85
2023-05-21T22:17:37.772Z,45.95
2023-05-21T22:18:41.315Z,45.85
2023-05-21T22:19:37.925Z,46.05
2023-05-21T22:20:38.167Z,45.85
2023-05-21T22:21:37.996Z,46.05
2023-05-21T22:22:38.025Z,46.15
2023-05-21T22:23:38.138Z,45.95
2023-05-21T22:24:38.048Z,45.95
2023-05-21T22:25:38.096Z,46.05
2023-05-21T22:26:38.096Z,46.35
2023-05-21T22:27:38.126Z,46.25
2023-05-21T22:28:38.079Z,46.15
2023-05-21T22:29:38.211Z,46.35
2023-05-21T22:30:38.422Z,46.85
2023-05-21T22:31:38.280Z,46.95
2023-05-21T22:32:38.302Z,47.15
2023-05-21T22:33:38.333Z,46.75
2023-05-21T22:34:38.333Z,46.85
2023-05-21T22:35:38.404Z,47.15
2023-05-21T22:36:38.368Z,46.65
2023-05-21T22:37:38.461Z,47.05
2023-05-21T22:38:38.465Z,47.05
2023-05-21T22:39:38.497Z,46.85
2023-05-21T22:40:38.649Z,47.05
2023-05-21T22:41:38.483Z,47.15
2023-05-21T22:42:38.508Z,47.35
2023-05-21T22:43:38.494Z,47.15
2023-05-21T22:44:38.603Z,47.05
2023-05-21T22:45:38.622Z,47.05
2023-05-21T22:46:38.730Z,46.95
2023-05-21T22:47:41.427Z,47.15
2023-05-21T22:48:38.646Z,47.15
2023-05-21T22:49:38.673Z,47.35
2023-05-21T22:50:39.105Z,47.25
2023-05-21T22:51:38.750Z,47.05
2023-05-21T22:52:38.792Z,47.55
2023-05-21T22:54:12.497Z,47.15
2023-05-21T22:54:38.833Z,47.35
2023-05-21T22:55:38.899Z,47.25
2023-05-21T22:56:38.908Z,47.35
2023-05-21T22:57:39.035Z,47.55
2023-05-21T22:58:39.016Z,47.45
2023-05-21T22:59:39.228Z,47.25
2023-05-21T23:00:39.352Z,47.35
2023-05-21T23:01:39.255Z,47.05
2023-05-21T23:02:39.297Z,47.35
2023-05-21T23:03:39.266Z,47.35
2023-05-21T23:04:43.991Z,47.47
2023-05-21T23:05:39.457Z,47.77
2023-05-21T23:06:39.325Z,47.57
2023-05-21T23:07:39.350Z,47.27
2023-05-21T23:08:39.394Z,47.57
2023-05-21T23:09:39.400Z,47.47
2023-05-21T23:10:39.736Z,47.67
2023-05-21T23:11:39.447Z,47.37
2023-05-21T23:12:39.503Z,47.77
2023-05-21T23:13:39.509Z,47.67
2023-05-21T23:14:39.520Z,47.67
2023-05-21T23:15:39.557Z,47.57
2023-05-21T23:16:39.591Z,47.47
2023-05-21T23:17:39.527Z,47.37
2023-05-21T23:18:39.728Z,47.77
2023-05-21T23:19:39.602Z,47.37
2023-05-21T23:20:39.917Z,47.27
2023-05-21T23:21:39.599Z,47.67
2023-05-21T23:22:39.589Z,47.57
2023-05-21T23:23:39.594Z,47.87
2023-05-21T23:24:39.616Z,47.57
2023-05-21T23:25:39.628Z,47.77
2023-05-21T23:26:39.718Z,47.77
2023-05-21T23:27:39.715Z,47.77
2023-05-21T23:28:39.720Z,47.67
2023-05-21T23:29:39.847Z,47.87
2023-05-21T23:30:40.178Z,47.87
2023-05-21T23:31:39.960Z,47.77
2023-05-21T23:32:39.962Z,47.67
2023-05-21T23:33:39.976Z,47.77
2023-05-21T23:34:39.984Z,47.57
2023-05-21T23:35:40.070Z,47.87
2023-05-21T23:36:40.038Z,47.77
2023-05-21T23:37:40.009Z,47.57
2023-05-21T23:38:40.091Z,47.77
2023-05-21T23:39:40.126Z,47.77
2023-05-21T23:40:40.357Z,47.87
2023-05-21T23:41:40.183Z,47.77
2023-05-21T23:42:40.188Z,48.07
2023-05-21T23:43:40.268Z,47.77
2023-05-21T23:44:40.201Z,47.57
2023-05-21T23:45:40.261Z,47.57
2023-05-21T23:46:40.182Z,47.87
2023-05-21T23:47:40.203Z,47.97
2023-05-21T23:48:40.248Z,48.17
2023-05-21T23:49:40.283Z,47.67
2023-05-21T23:50:40.492Z,48.07
2023-05-21T23:51:40.427Z,48.07
2023-05-21T23:52:40.346Z,47.87
2023-05-21T23:53:40.433Z,48.07
2023-05-21T23:54:40.536Z,47.97
2023-05-21T23:55:40.516Z,47.97
2023-05-21T23:56:40.519Z,48.17
2023-05-21T23:57:40.546Z,47.99
2023-05-21T23:58:40.537Z,48.19
2023-05-21T23:59:40.549Z,47.87
